Meteo Giornale » Osservazioni meteo Stati Uniti (USA) » Roseburg
ore: 15:53 - Osservazioni Meteo Roseburg
Lat. 43° 14' N Lon. 123° 21' W Alt. 160 metri s.l.m.
23 °C
Poco Nuvoloso
Temp. 24 Ore
13 °C
28 °C
Nord
11.1 Km/h
Dew point 10 °C
Umidità 43 %
Visibilità 10 Km
Il sole sorge alle ore 06:38
Il sole tramonta alle ore 19:48
| Data e Ora | Cielo e Fenomeni | T °C | DP °C | Um. % | Pres. hPa | Vis. km | Vento km/h | |
|---|---|---|---|---|---|---|---|---|
| Oggi h: 15:53 | Poco Nuvoloso | 23 | 10 | 43 | 1011 | 10 | N 11.1 | |
| Oggi h: 14:53 | Molto Nuvoloso | 23 | 10 | 43 | 1011 | 10 | NO 13 | |
| Oggi h: 13:53 | Nuvoloso | 22 | 10 | 46 | 1011 | 10 | N 7.4 | |
| Oggi h: 12:53 | Sereno | 21 | 9 | 46 | 1012 | 10 | N 0 | |
| Oggi h: 11:53 | Coperto | 20 | 9 | 49 | 1012 | 10 | N 5.5 | |
| Oggi h: 10:53 | Coperto | 18 | 10 | 59 | 1013 | 10 | S/SE 9.3 | |
| Oggi h: 09:53 | Coperto | 16 | 11 | 72 | 1013 | 10 | N 0 | |
| Oggi h: 08:53 | Coperto | 16 | 11 | 72 | 1013 | 10 | N 0 | |
| Oggi h: 08:25 | Coperto | 16 | 11 | 72 | 1013 | 10 | N/NE 7.4 | |
| Oggi h: 07:53 | Coperto | 15 | 11 | 76 | 1013 | 10 | N 5.5 | |
| Oggi h: 06:53 | Coperto | 15 | 11 | 76 | 1012 | 10 | N 5.5 | |
| Oggi h: 05:53 | Coperto | 15 | 11 | 76 | 1012 | 10 | N 0 | |
| Oggi h: 04:53 | Coperto | 14 | 11 | 82 | 1012 | 10 | N 5.5 | |
| Oggi h: 03:53 | Coperto | 14 | 10 | 76 | 1012 | 10 | N 0 | |
| Oggi h: 03:12 | Molto Nuvoloso | 13 | 10 | 81 | 1012 | 10 | N 0 | |
| Oggi h: 02:53 | Sereno | 13 | 10 | 81 | 1012 | 10 | N 0 | |
| Oggi h: 01:53 | Sereno | 14 | 10 | 76 | 1012 | 10 | N 0 | |
| Oggi h: 00:53 | Sereno | 15 | 11 | 76 | 1012 | 10 | N 0 | |
| Ieri h: 23:53 | Sereno | 16 | 11 | 72 | 1012 | 10 | N/NE 9.3 | |
| Ieri h: 22:53 | Sereno | 17 | 11 | 67 | 1012 | 10 | N/NE 11.1 | |
| Ieri h: 21:53 | Sereno | 18 | 11 | 63 | 1011 | 10 | N/NO 9.3 | |
| Ieri h: 20:53 | Sereno | 19 | 10 | 55 | 1010 | 10 | NO 11.1 | |
| Ieri h: 19:53 | Sereno | 21 | 10 | 49 | 1009 | 10 | NO 14.8 | |
| Ieri h: 18:53 | Sereno | 25 | 11 | 41 | 1008 | 10 | N/NO 14.8 | |
| Ieri h: 17:53 | Sereno | 27 | 11 | 36 | 1008 | 10 | N/NO 13 | |
| Ieri h: 16:53 | Sereno | 28 | 11 | 34 | 1007 | 10 | NO 16.7 | |



